Latest Weather Observations for Sydney Harbour

IDN60901

Issued at 3:31 pm EST Wednesday 27 July 2016 (issued every 10 minutes, with the page automatically refreshed every 10 minutes)

About weather observations | Map of Sydney area stations | Latest observations for Sydney area | Other Formats
Station Details ID: 066196 Name: WEDDING CAKE WEST Lat: -33.84 Lon: 151.26 Height: 6.0 m
Data from the previous 72 hours. | See also: Recent months at Sydney Harbour
Date/Time
EST
Temp
°C
App
Temp
°C
Dew
Point
°C
Rel
Hum
%
Delta-T
°C
Wind Press
QNH
hPa
Press
MSL
hPa
Rain since
9am
mm
Dir  Spd
km/h
Gust
km/h
Spd
kts
Gust
kts
27/03:30pm 17.2 - - - - WSW 28 37 15 20 - - -
27/03:12pm 17.4 - - - - W 28 46 15 25 - - -
27/03:00pm 17.3 - - - - WSW 28 41 15 22 - - -
27/02:30pm 17.2 - - - - W 37 50 20 27 - - -
27/02:21pm 17.2 - - - - W 33 46 18 25 - - -
27/02:00pm 17.2 - - - - WSW 37 56 20 30 - - -
27/01:30pm 17.0 - - - - W 41 56 22 30 - - -
27/01:02pm 17.1 - - - - W 35 54 19 29 - - -
27/01:00pm 17.0 - - - - W 39 54 21 29 - - -
27/12:31pm 17.0 - - - - W 33 56 18 30 - - -
27/12:30pm 17.1 - - - - W 33 50 18 27 - - -
27/12:00pm 17.0 - - - - WNW 39 59 21 32 - - -
27/11:30am 16.8 - - - - W 35 56 19 30 - - -
27/11:00am 16.6 - - - - WNW 44 65 24 35 - - -
27/10:40am 16.5 - - - - WNW 32 56 17 30 - - -
27/10:30am 16.2 - - - - WNW 24 41 13 22 - - -
27/10:00am 15.8 - - - - WNW 19 32 10 17 - - -
27/09:30am 15.3 - - - - WNW 24 41 13 22 - - -
27/09:00am 14.9 - - - - WNW 22 33 12 18 - - -
27/08:30am 14.3 - - - - NW 19 28 10 15 - - -
27/08:00am 13.6 - - - - NNW 15 26 8 14 - - -
27/07:30am 13.3 - - - - NNW 15 26 8 14 - - -
27/07:00am 13.5 - - - - NW 17 26 9 14 - - -
27/06:30am 13.3 - - - - WNW 19 32 10 17 - - -
27/06:00am 13.2 - - - - NNW 13 20 7 11 - - -
27/05:30am 13.5 - - - - NW 20 32 11 17 - - -
27/05:00am 12.8 - - - - NW 15 28 8 15 - - -
27/04:30am 12.2 - - - - NNW 17 26 9 14 - - -
27/04:00am 12.3 - - - - NNW 17 22 9 12 - - -
27/03:30am 12.3 - - - - NNW 19 24 10 13 - - -
27/03:00am 12.1 - - - - NNW 17 20 9 11 - - -
27/02:30am 13.1 - - - - NW 13 19 7 10 - - -
27/02:00am 12.8 - - - - NNW 15 20 8 11 - - -
27/01:30am 12.4 - - - - NNW 13 17 7 9 - - -
27/01:00am 12.8 - - - - NNW 9 13 5 7 - - -
27/12:30am 13.5 - - - - NNW 15 17 8 9 - - -
27/12:00am 13.6 - - - - NNW 13 20 7 11 - - -
 
Date/Time
EST
Temp
°C
App
Temp
°C
Dew
Point
°C
Rel
Hum
%
Delta-T
°C
Wind Press
QNH
hPa
Press
MSL
hPa
Rain since
9am
mm
Dir  Spd
km/h
Gust
km/h
Spd
kts
Gust
kts
26/11:30pm 13.5 - - - - NNW 13 17 7 9 - - -
26/11:00pm 13.6 - - - - NNW 11 17 6 9 - - -
26/10:30pm 13.8 - - - - NNW 15 19 8 10 - - -
26/10:00pm 13.7 - - - - NNW 13 19 7 10 - - -
26/09:30pm 14.0 - - - - N 13 15 7 8 - - -
26/09:00pm 14.6 - - - - WNW 15 20 8 11 - - -
26/08:30pm 14.9 - - - - WNW 22 32 12 17 - - -
26/08:00pm 15.4 - - - - W 24 35 13 19 - - -
26/07:30pm 15.3 - - - - W 24 30 13 16 - - -
26/07:00pm 15.7 - - - - W 28 32 15 17 - - -
26/06:30pm 15.9 - - - - W 15 22 8 12 - - -
26/06:00pm 16.3 - - - - W 19 30 10 16 - - -
26/05:30pm 16.8 - - - - W 24 37 13 20 - - -
26/05:00pm 17.2 - - - - WNW 24 33 13 18 - - -
26/04:30pm 17.8 - - - - W 28 41 15 22 - - -
26/04:00pm 18.2 - - - - WNW 20 35 11 19 - - -
26/03:30pm 17.7 - - - - SE 6 13 3 7 - - -
26/03:00pm 17.0 - - - - ESE 20 28 11 15 - - -
26/02:30pm 16.1 - - - - E 26 32 14 17 - - -
26/02:00pm 16.3 - - - - E 22 26 12 14 - - -
26/01:30pm 16.2 - - - - E 17 24 9 13 - - -
26/01:00pm 15.8 - - - - ENE 17 20 9 11 - - -
26/12:30pm 15.7 - - - - E 9 17 5 9 - - -
26/12:00pm 16.5 - - - - ENE 13 19 7 10 - - -
26/11:30am 16.1 - - - - S 11 13 6 7 - - -
26/11:00am 15.3 - - - - WSW 13 17 7 9 - - -
26/10:30am 15.1 - - - - N 15 19 8 10 - - -
26/10:00am 14.6 - - - - N 11 15 6 8 - - -
26/09:30am 13.9 - - - - N 13 17 7 9 - - -
26/09:00am 13.2 - - - - N 13 17 7 9 - - -
26/08:30am 12.7 - - - - N 15 17 8 9 - - -
26/08:00am 12.4 - - - - NE 11 15 6 8 - - -
26/07:30am 12.2 - - - - N 13 15 7 8 - - -
26/07:00am 11.8 - - - - NNW 13 19 7 10 - - -
26/06:30am 12.0 - - - - N 19 22 10 12 - - -
26/06:00am 11.9 - - - - NNE 17 20 9 11 - - -
26/05:30am 11.8 - - - - NNE 15 17 8 9 - - -
26/05:00am 12.1 - - - - N 17 20 9 11 - - -
26/04:30am 12.3 - - - - N 15 20 8 11 - - -
26/04:00am 11.9 - - - - N 17 19 9 10 - - -
26/03:30am 12.0 - - - - N 13 19 7 10 - - -
26/03:00am 12.4 - - - - N 13 17 7 9 - - -
26/02:30am 12.4 - - - - N 17 20 9 11 - - -
26/02:00am 12.4 - - - - N 17 22 9 12 - - -
26/01:30am 12.2 - - - - N 15 20 8 11 - - -
26/01:00am 12.0 - - - - N 15 20 8 11 - - -
26/12:30am 12.0 - - - - N 13 17 7 9 - - -
26/12:00am 12.2 - - - - NNW 13 17 7 9 - - -
 
Date/Time
EST
Temp
°C
App
Temp
°C
Dew
Point
°C
Rel
Hum
%
Delta-T
°C
Wind Press
QNH
hPa
Press
MSL
hPa
Rain since
9am
mm
Dir  Spd
km/h
Gust
km/h
Spd
kts
Gust
kts
25/11:30pm 12.4 - - - - NW 13 19 7 10 - - -
25/11:00pm 12.5 - - - - NW 15 24 8 13 - - -
25/10:30pm 12.3 - - - - NW 13 20 7 11 - - -
25/10:00pm 12.4 - - - - NNW 24 32 13 17 - - -
25/09:30pm 12.7 - - - - NNW 19 26 10 14 - - -
25/09:00pm 12.8 - - - - N 19 26 10 14 - - -
25/08:30pm 12.9 - - - - NNW 22 32 12 17 - - -
25/08:00pm 13.3 - - - - N 19 24 10 13 - - -
25/07:30pm 13.8 - - - - NW 13 24 7 13 - - -
25/07:00pm 14.2 - - - - WNW 20 28 11 15 - - -
25/06:30pm 14.7 - - - - WNW 30 41 16 22 - - -
25/06:00pm 14.9 - - - - WNW 32 43 17 23 - - -
25/05:30pm 15.2 - - - - W 28 41 15 22 - - -
25/05:00pm 15.6 - - - - WNW 33 48 18 26 - - -
25/04:30pm 16.2 - - - - WNW 22 35 12 19 - - -
25/04:00pm 16.5 - - - - W 30 39 16 21 - - -
25/03:30pm 16.4 - - - - W 32 44 17 24 - - -
25/03:08pm 16.6 - - - - WNW 28 46 15 25 - - -
25/03:00pm 16.5 - - - - WNW 32 43 17 23 - - -
25/02:49pm 16.6 - - - - WNW 30 48 16 26 - - -
25/02:30pm 16.4 - - - - W 28 39 15 21 - - -
25/02:00pm 16.8 - - - - WNW 24 35 13 19 - - -
25/01:30pm 16.3 - - - - W 30 39 16 21 - - -
25/01:00pm 15.8 - - - - W 22 35 12 19 - - -
25/12:30pm 15.4 - - - - W 24 32 13 17 - - -
25/12:00pm 15.1 - - - - W 26 37 14 20 - - -
25/11:30am 15.0 - - - - W 35 44 19 24 - - -
25/11:11am 14.8 - - - - WNW 35 54 19 29 - - -
25/11:00am 14.5 - - - - W 39 52 21 28 - - -
25/10:30am 14.1 - - - - WNW 39 59 21 32 - - -
25/10:14am 13.9 - - - - WNW 30 50 16 27 - - -
25/10:00am 13.8 - - - - WNW 26 39 14 21 - - -
25/09:51am 13.6 - - - - WNW 28 48 15 26 - - -
25/09:30am 13.3 - - - - NW 17 26 9 14 - - -
25/09:00am 12.3 - - - - NNW 17 26 9 14 - - -
25/08:30am 11.7 - - - - N 15 20 8 11 - - -
25/08:00am 11.6 - - - - N 13 19 7 10 - - -
25/07:30am 11.1 - - - - NNW 13 19 7 10 - - -
25/07:00am 10.6 - - - - NNW 15 20 8 11 - - -
25/06:30am 10.7 - - - - NW 17 22 9 12 - - -
25/06:00am 11.0 - - - - WNW 20 26 11 14 - - -
25/05:30am 11.2 - - - - WNW 20 28 11 15 - - -
25/05:00am 10.9 - - - - WNW 17 24 9 13 - - -
25/04:30am 11.2 - - - - NW 22 33 12 18 - - -
25/04:00am 10.8 - - - - NW 20 30 11 16 - - -
25/03:30am 11.0 - - - - NNW 19 26 10 14 - - -
25/03:00am 10.8 - - - - NW 17 26 9 14 - - -
25/02:30am 10.9 - - - - NNW 19 26 10 14 - - -
25/02:00am 10.8 - - - - NNW 15 22 8 12 - - -
25/01:30am 10.6 - - - - NNW 19 26 10 14 - - -
25/01:00am 10.9 - - - - NNW 17 28 9 15 - - -
25/12:30am 10.6 - - - - NNW 26 37 14 20 - - -
25/12:00am 10.4 - - - - NNW 22 37 12 20 - - -
 
Date/Time
EST
Temp
°C
App
Temp
°C
Dew
Point
°C
Rel
Hum
%
Delta-T
°C
Wind Press
QNH
hPa
Press
MSL
hPa
Rain since
9am
mm
Dir  Spd
km/h
Gust
km/h
Spd
kts
Gust
kts
24/11:30pm 10.6 - - - - N 20 28 11 15 - - -
24/11:00pm 10.4 - - - - NNW 22 30 12 16 - - -
24/10:30pm 10.5 - - - - NNW 24 32 13 17 - - -
24/10:00pm 10.4 - - - - NNW 24 30 13 16 - - -
24/09:30pm 10.4 - - - - NNW 24 32 13 17 - - -
24/09:00pm 10.9 - - - - N 20 26 11 14 - - -
24/08:30pm 10.9 - - - - NNW 20 28 11 15 - - -
24/08:00pm 10.9 - - - - NNW 19 24 10 13 - - -
24/07:30pm 10.8 - - - - NNW 22 30 12 16 - - -
24/07:00pm 11.1 - - - - NNW 13 17 7 9 - - -
24/06:30pm 11.1 - - - - NNW 17 20 9 11 - - -
24/06:00pm 11.5 - - - - NNW 15 20 8 11 - - -
24/05:30pm 11.7 - - - - NNW 15 19 8 10 - - -
24/05:00pm 12.1 - - - - NNW 19 24 10 13 - - -
24/04:30pm 12.8 - - - - NW 15 20 8 11 - - -
24/04:00pm 12.9 - - - - NW 17 26 9 14 - - -

Latest Capital City Observations: Canberra | Sydney | Melbourne | Brisbane | Adelaide | Perth | Hobart | Darwin

Other Formats:

Comma delimited format used in spreadsheet applications
http://www.bom.gov.au/fwo/IDN60901/IDN60901.95766.axf

JavaScript Object Notation format (JSON) in row-major order
http://www.bom.gov.au/fwo/IDN60901/IDN60901.95766.json